sensor_id;sensor_type;location;lat;lon;timestamp;pressure;altitude;pressure_sealevel;temperature;humidity
27587;BME280;15019;49.002;8.420;2022-07-18T00:00:49;100918.09;;;19.98;52.90
27587;BME280;15019;49.002;8.420;2022-07-18T00:03:14;100918.19;;;19.95;52.88
27587;BME280;15019;49.002;8.420;2022-07-18T00:05:39;100926.03;;;19.91;53.27
27587;BME280;15019;49.002;8.420;2022-07-18T00:08:05;100924.31;;;19.91;52.89
27587;BME280;15019;49.002;8.420;2022-07-18T00:10:30;100925.97;;;19.92;53.00
27587;BME280;15019;49.002;8.420;2022-07-18T00:12:55;100921.00;;;19.86;52.69
27587;BME280;15019;49.002;8.420;2022-07-18T00:15:21;100923.94;;;19.74;52.72
27587;BME280;15019;49.002;8.420;2022-07-18T00:17:46;100931.72;;;19.71;52.58
27587;BME280;15019;49.002;8.420;2022-07-18T00:20:13;100930.06;;;19.70;52.55
27587;BME280;15019;49.002;8.420;2022-07-18T00:22:39;100926.56;;;19.71;52.77
27587;BME280;15019;49.002;8.420;2022-07-18T00:25:07;100914.81;;;19.62;52.60
27587;BME280;15019;49.002;8.420;2022-07-18T00:27:33;100921.78;;;19.59;52.92
27587;BME280;15019;49.002;8.420;2022-07-18T00:29:58;100913.34;;;19.54;52.34
27587;BME280;15019;49.002;8.420;2022-07-18T00:32:23;100915.03;;;19.55;52.64
27587;BME280;15019;49.002;8.420;2022-07-18T00:34:49;100910.75;;;19.54;52.72
27587;BME280;15019;49.002;8.420;2022-07-18T00:37:17;100917.72;;;19.50;53.01
27587;BME280;15019;49.002;8.420;2022-07-18T00:39:43;100913.88;;;19.32;53.08
27587;BME280;15019;49.002;8.420;2022-07-18T00:42:08;100916.22;;;19.40;53.16
27587;BME280;15019;49.002;8.420;2022-07-18T00:44:33;100918.78;;;19.42;52.75
27587;BME280;15019;49.002;8.420;2022-07-18T00:47:00;100915.38;;;19.39;53.14
27587;BME280;15019;49.002;8.420;2022-07-18T00:49:26;100925.53;;;19.46;52.84
27587;BME280;15019;49.002;8.420;2022-07-18T00:51:52;100918.94;;;19.35;53.85
27587;BME280;15019;49.002;8.420;2022-07-18T00:54:18;100914.19;;;19.20;53.70
27587;BME280;15019;49.002;8.420;2022-07-18T00:56:45;100922.19;;;19.08;54.27
27587;BME280;15019;49.002;8.420;2022-07-18T00:59:12;100922.94;;;19.13;54.15
27587;BME280;15019;49.002;8.420;2022-07-18T01:01:38;100905.88;;;19.11;54.05
27587;BME280;15019;49.002;8.420;2022-07-18T01:04:04;100924.63;;;19.14;54.56
27587;BME280;15019;49.002;8.420;2022-07-18T01:06:29;100914.28;;;19.17;53.73
27587;BME280;15019;49.002;8.420;2022-07-18T01:08:56;100920.41;;;19.12;53.85
27587;BME280;15019;49.002;8.420;2022-07-18T01:11:22;100917.94;;;19.07;54.58
27587;BME280;15019;49.002;8.420;2022-07-18T01:13:49;100921.41;;;19.06;54.13
27587;BME280;15019;49.002;8.420;2022-07-18T01:16:16;100914.88;;;18.93;53.88
27587;BME280;15019;49.002;8.420;2022-07-18T01:18:48;100920.09;;;18.90;54.65
27587;BME280;15019;49.002;8.420;2022-07-18T01:21:14;100923.53;;;18.89;54.61
27587;BME280;15019;49.002;8.420;2022-07-18T01:23:40;100917.59;;;18.87;54.50
27587;BME280;15019;49.002;8.420;2022-07-18T01:26:06;100914.31;;;18.82;54.88
27587;BME280;15019;49.002;8.420;2022-07-18T01:28:31;100918.78;;;18.74;54.45
27587;BME280;15019;49.002;8.420;2022-07-18T01:30:57;100908.59;;;18.69;54.64
27587;BME280;15019;49.002;8.420;2022-07-18T01:33:22;100909.66;;;18.60;54.40
27587;BME280;15019;49.002;8.420;2022-07-18T01:35:47;100910.47;;;18.62;54.79
27587;BME280;15019;49.002;8.420;2022-07-18T01:38:13;100914.69;;;18.65;54.68
27587;BME280;15019;49.002;8.420;2022-07-18T01:40:39;100910.56;;;18.56;54.87
27587;BME280;15019;49.002;8.420;2022-07-18T01:43:04;100912.31;;;18.56;54.56
27587;BME280;15019;49.002;8.420;2022-07-18T01:45:30;100908.84;;;18.58;54.43
27587;BME280;15019;49.002;8.420;2022-07-18T01:47:55;100908.00;;;18.58;54.22
27587;BME280;15019;49.002;8.420;2022-07-18T01:50:20;100908.13;;;18.52;54.57
27587;BME280;15019;49.002;8.420;2022-07-18T01:52:46;100907.41;;;18.45;54.86
27587;BME280;15019;49.002;8.420;2022-07-18T01:55:12;100907.56;;;18.39;54.57
27587;BME280;15019;49.002;8.420;2022-07-18T01:57:37;100914.38;;;18.40;54.52
27587;BME280;15019;49.002;8.420;2022-07-18T02:00:05;100907.56;;;18.39;54.23
27587;BME280;15019;49.002;8.420;2022-07-18T02:02:31;100914.44;;;18.37;54.27
27587;BME280;15019;49.002;8.420;2022-07-18T02:04:57;100917.88;;;18.36;54.66
27587;BME280;15019;49.002;8.420;2022-07-18T02:07:22;100919.72;;;18.31;54.69
27587;BME280;15019;49.002;8.420;2022-07-18T02:09:49;100917.16;;;18.31;54.65
27587;BME280;15019;49.002;8.420;2022-07-18T02:12:14;100911.88;;;18.37;54.76
27587;BME280;15019;49.002;8.420;2022-07-18T02:14:39;100917.00;;;18.37;54.31
27587;BME280;15019;49.002;8.420;2022-07-18T02:17:05;100907.63;;;18.36;54.63
27587;BME280;15019;49.002;8.420;2022-07-18T02:19:30;100899.25;;;18.28;54.54
27587;BME280;15019;49.002;8.420;2022-07-18T02:21:56;100901.00;;;18.26;54.71
27587;BME280;15019;49.002;8.420;2022-07-18T02:24:21;100906.97;;;18.26;54.29
27587;BME280;15019;49.002;8.420;2022-07-18T02:26:47;100905.28;;;18.25;54.64
27587;BME280;15019;49.002;8.420;2022-07-18T02:29:12;100906.94;;;18.28;54.71
27587;BME280;15019;49.002;8.420;2022-07-18T02:31:37;100897.63;;;18.24;55.30
27587;BME280;15019;49.002;8.420;2022-07-18T02:34:03;100900.13;;;18.27;55.22
27587;BME280;15019;49.002;8.420;2022-07-18T02:36:28;100902.84;;;18.21;56.52
27587;BME280;15019;49.002;8.420;2022-07-18T02:38:54;100902.03;;;18.19;57.65
27587;BME280;15019;49.002;8.420;2022-07-18T02:41:19;100904.97;;;18.01;59.41
27587;BME280;15019;49.002;8.420;2022-07-18T02:43:44;100910.16;;;17.98;59.95
27587;BME280;15019;49.002;8.420;2022-07-18T02:46:10;100908.72;;;17.84;61.15
27587;BME280;15019;49.002;8.420;2022-07-18T02:48:35;100905.41;;;17.79;60.69
27587;BME280;15019;49.002;8.420;2022-07-18T02:51:00;100907.06;;;17.80;60.91
27587;BME280;15019;49.002;8.420;2022-07-18T02:53:25;100908.13;;;17.70;60.92
27587;BME280;15019;49.002;8.420;2022-07-18T02:55:51;100913.22;;;17.73;60.43
27587;BME280;15019;49.002;8.420;2022-07-18T02:58:17;100913.34;;;17.67;61.01
27587;BME280;15019;49.002;8.420;2022-07-18T03:00:44;100911.69;;;17.65;60.78
27587;BME280;15019;49.002;8.420;2022-07-18T03:03:09;100917.66;;;17.62;60.94
27587;BME280;15019;49.002;8.420;2022-07-18T03:05:34;100913.53;;;17.55;61.25
27587;BME280;15019;49.002;8.420;2022-07-18T03:08:00;100911.72;;;17.60;61.16
27587;BME280;15019;49.002;8.420;2022-07-18T03:10:25;100907.72;;;17.47;62.40
27587;BME280;15019;49.002;8.420;2022-07-18T03:12:50;100900.16;;;17.39;62.08
27587;BME280;15019;49.002;8.420;2022-07-18T03:15:16;100909.50;;;17.42;61.81
27587;BME280;15019;49.002;8.420;2022-07-18T03:17:41;100902.81;;;17.35;61.51
27587;BME280;15019;49.002;8.420;2022-07-18T03:20:07;100895.88;;;17.40;60.05
27587;BME280;15019;49.002;8.420;2022-07-18T03:22:32;100901.06;;;17.37;58.98
27587;BME280;15019;49.002;8.420;2022-07-18T03:24:57;100907.88;;;17.38;59.19
27587;BME280;15019;49.002;8.420;2022-07-18T03:27:23;100908.63;;;17.43;58.97
27587;BME280;15019;49.002;8.420;2022-07-18T03:29:48;100903.44;;;17.47;58.37
27587;BME280;15019;49.002;8.420;2022-07-18T03:32:13;100905.06;;;17.50;58.37
27587;BME280;15019;49.002;8.420;2022-07-18T03:34:39;100905.94;;;17.49;57.88
27587;BME280;15019;49.002;8.420;2022-07-18T03:37:04;100900.06;;;17.45;57.95
27587;BME280;15019;49.002;8.420;2022-07-18T03:39:29;100898.44;;;17.40;57.65
27587;BME280;15019;49.002;8.420;2022-07-18T03:41:55;100895.16;;;17.33;57.87
27587;BME280;15019;49.002;8.420;2022-07-18T03:44:20;100897.56;;;17.41;57.57
27587;BME280;15019;49.002;8.420;2022-07-18T03:46:48;100887.31;;;17.41;57.15
27587;BME280;15019;49.002;8.420;2022-07-18T03:49:14;100891.53;;;17.43;57.56
27587;BME280;15019;49.002;8.420;2022-07-18T03:51:40;100896.63;;;17.46;57.28
27587;BME280;15019;49.002;8.420;2022-07-18T03:54:05;100896.50;;;17.51;56.57
27587;BME280;15019;49.002;8.420;2022-07-18T03:56:30;100894.09;;;17.43;56.93
27587;BME280;15019;49.002;8.420;2022-07-18T03:58:55;100895.78;;;17.46;56.38
27587;BME280;15019;49.002;8.420;2022-07-18T04:01:21;100894.78;;;17.53;55.61
27587;BME280;15019;49.002;8.420;2022-07-18T04:03:46;100895.53;;;17.58;55.66
27587;BME280;15019;49.002;8.420;2022-07-18T04:06:11;100890.34;;;17.61;54.59
27587;BME280;15019;49.002;8.420;2022-07-18T04:08:37;100901.41;;;17.65;55.05
27587;BME280;15019;49.002;8.420;2022-07-18T04:11:02;100896.25;;;17.66;54.19
27587;BME280;15019;49.002;8.420;2022-07-18T04:13:28;100902.22;;;17.68;54.01
27587;BME280;15019;49.002;8.420;2022-07-18T04:15:53;100899.59;;;17.70;54.17
27587;BME280;15019;49.002;8.420;2022-07-18T04:18:18;100903.06;;;17.69;54.46
27587;BME280;15019;49.002;8.420;2022-07-18T04:20:44;100914.06;;;17.74;53.95
27587;BME280;15019;49.002;8.420;2022-07-18T04:23:09;100915.84;;;17.70;53.89
27587;BME280;15019;49.002;8.420;2022-07-18T04:25:37;100915.72;;;17.76;53.86
27587;BME280;15019;49.002;8.420;2022-07-18T04:28:04;100914.03;;;17.75;54.26
27587;BME280;15019;49.002;8.420;2022-07-18T04:30:30;100913.19;;;17.75;54.04
27587;BME280;15019;49.002;8.420;2022-07-18T04:32:56;100913.13;;;17.79;53.85
27587;BME280;15019;49.002;8.420;2022-07-18T04:35:22;100916.63;;;17.74;54.48
27587;BME280;15019;49.002;8.420;2022-07-18T04:37:49;100912.34;;;17.74;54.03
27587;BME280;15019;49.002;8.420;2022-07-18T04:40:14;100910.56;;;17.79;54.05
27587;BME280;15019;49.002;8.420;2022-07-18T04:42:40;100911.31;;;17.83;53.74
27587;BME280;15019;49.002;8.420;2022-07-18T04:45:05;100898.47;;;17.83;53.71
27587;BME280;15019;49.002;8.420;2022-07-18T04:47:31;100900.16;;;17.85;53.55
27587;BME280;15019;49.002;8.420;2022-07-18T04:49:58;100902.59;;;17.91;53.85
27587;BME280;15019;49.002;8.420;2022-07-18T04:52:24;100912.06;;;17.89;53.89
27587;BME280;15019;49.002;8.420;2022-07-18T04:54:49;100903.41;;;17.93;54.54
27587;BME280;15019;49.002;8.420;2022-07-18T04:57:15;100906.78;;;17.96;53.59
27587;BME280;15019;49.002;8.420;2022-07-18T04:59:41;100909.16;;;18.05;53.33
27587;BME280;15019;49.002;8.420;2022-07-18T05:02:08;100908.09;;;18.15;52.71
27587;BME280;15019;49.002;8.420;2022-07-18T05:04:34;100912.16;;;18.23;52.94
27587;BME280;15019;49.002;8.420;2022-07-18T05:06:59;100914.66;;;18.28;53.19
27587;BME280;15019;49.002;8.420;2022-07-18T05:09:25;100916.34;;;18.29;53.23
27587;BME280;15019;49.002;8.420;2022-07-18T05:11:50;100917.81;;;18.41;53.20
27587;BME280;15019;49.002;8.420;2022-07-18T05:14:16;100921.97;;;18.45;52.89
27587;BME280;15019;49.002;8.420;2022-07-18T05:16:43;100921.13;;;18.44;53.94
27587;BME280;15019;49.002;8.420;2022-07-18T05:19:08;100920.22;;;18.47;53.42
27587;BME280;15019;49.002;8.420;2022-07-18T05:21:33;100924.25;;;18.58;54.03
27587;BME280;15019;49.002;8.420;2022-07-18T05:23:59;100924.22;;;18.61;53.80
27587;BME280;15019;49.002;8.420;2022-07-18T05:26:24;100919.00;;;18.64;54.04
27587;BME280;15019;49.002;8.420;2022-07-18T05:28:49;100921.47;;;18.68;54.32
27587;BME280;15019;49.002;8.420;2022-07-18T05:31:16;100924.38;;;18.89;54.19
27587;BME280;15019;49.002;8.420;2022-07-18T05:33:41;100922.56;;;18.94;54.05
27587;BME280;15019;49.002;8.420;2022-07-18T05:36:07;100926.63;;;19.03;53.33
27587;BME280;15019;49.002;8.420;2022-07-18T05:38:33;100929.72;;;19.17;55.70
27587;BME280;15019;49.002;8.420;2022-07-18T05:40:58;100925.91;;;19.30;53.95
27587;BME280;15019;49.002;8.420;2022-07-18T05:43:23;100919.09;;;19.29;53.79
27587;BME280;15019;49.002;8.420;2022-07-18T05:45:49;100924.75;;;19.42;54.06
27587;BME280;15019;49.002;8.420;2022-07-18T05:48:14;100923.69;;;19.51;54.33
27587;BME280;15019;49.002;8.420;2022-07-18T05:50:40;100921.78;;;19.59;53.98
27587;BME280;15019;49.002;8.420;2022-07-18T05:53:05;100923.97;;;19.72;53.49
27587;BME280;15019;49.002;8.420;2022-07-18T05:55:30;100926.50;;;19.74;53.38
27587;BME280;15019;49.002;8.420;2022-07-18T05:57:56;100917.56;;;19.87;52.77
27587;BME280;15019;49.002;8.420;2022-07-18T06:00:21;100924.94;;;19.99;52.84
27587;BME280;15019;49.002;8.420;2022-07-18T06:02:48;100916.19;;;20.05;52.53
27587;BME280;15019;49.002;8.420;2022-07-18T06:05:14;100921.13;;;20.13;51.49
27587;BME280;15019;49.002;8.420;2022-07-18T06:07:40;100912.97;;;20.26;52.02
27587;BME280;15019;49.002;8.420;2022-07-18T06:10:05;100918.78;;;20.33;51.60
27587;BME280;15019;49.002;8.420;2022-07-18T06:12:32;100910.63;;;20.48;51.36
27587;BME280;15019;49.002;8.420;2022-07-18T06:14:58;100909.44;;;20.58;50.97
27587;BME280;15019;49.002;8.420;2022-07-18T06:17:24;100910.44;;;20.54;51.34
27587;BME280;15019;49.002;8.420;2022-07-18T06:19:49;100912.84;;;20.59;50.88
27587;BME280;15019;49.002;8.420;2022-07-18T06:22:14;100916.03;;;20.67;50.68
27587;BME280;15019;49.002;8.420;2022-07-18T06:24:40;100925.94;;;20.79;50.24
27587;BME280;15019;49.002;8.420;2022-07-18T06:27:05;100927.59;;;20.81;49.73
27587;BME280;15019;49.002;8.420;2022-07-18T06:29:31;100921.03;;;20.98;50.43
27587;BME280;15019;49.002;8.420;2022-07-18T06:31:56;100913.91;;;21.06;49.69
27587;BME280;15019;49.002;8.420;2022-07-18T06:34:21;100911.31;;;21.32;50.01
27587;BME280;15019;49.002;8.420;2022-07-18T06:36:47;100912.91;;;21.36;49.84
27587;BME280;15019;49.002;8.420;2022-07-18T06:39:12;100914.47;;;21.40;49.55
27587;BME280;15019;49.002;8.420;2022-07-18T06:41:38;100916.94;;;21.43;49.52
27587;BME280;15019;49.002;8.420;2022-07-18T06:44:03;100916.97;;;21.67;49.39
27587;BME280;15019;49.002;8.420;2022-07-18T06:46:29;100921.13;;;21.94;49.16
27587;BME280;15019;49.002;8.420;2022-07-18T06:48:55;100923.59;;;22.44;48.03
27587;BME280;15019;49.002;8.420;2022-07-18T06:51:20;100918.31;;;22.89;46.28
27587;BME280;15019;49.002;8.420;2022-07-18T06:53:46;100911.50;;;22.66;46.21
27587;BME280;15019;49.002;8.420;2022-07-18T06:56:11;100913.28;;;22.64;46.56
27587;BME280;15019;49.002;8.420;2022-07-18T06:58:37;100912.31;;;22.88;45.82
27587;BME280;15019;49.002;8.420;2022-07-18T07:01:03;100924.69;;;23.02;45.56
27587;BME280;15019;49.002;8.420;2022-07-18T07:03:28;100925.75;;;23.18;45.25
27587;BME280;15019;49.002;8.420;2022-07-18T07:05:54;100913.81;;;23.14;45.37
27587;BME280;15019;49.002;8.420;2022-07-18T07:08:19;100915.69;;;23.31;46.29
27587;BME280;15019;49.002;8.420;2022-07-18T07:10:44;100913.81;;;23.14;44.64
27587;BME280;15019;49.002;8.420;2022-07-18T07:13:10;100923.72;;;23.45;44.58
27587;BME280;15019;49.002;8.420;2022-07-18T07:15:36;100913.81;;;23.94;43.97
27587;BME280;15019;49.002;8.420;2022-07-18T07:18:02;100924.72;;;24.57;42.17
27587;BME280;15019;49.002;8.420;2022-07-18T07:20:27;100923.84;;;24.92;40.69
27587;BME280;15019;49.002;8.420;2022-07-18T07:22:54;100924.41;;;25.66;39.69
27587;BME280;15019;49.002;8.420;2022-07-18T07:25:23;100926.53;;;25.58;38.50
27587;BME280;15019;49.002;8.420;2022-07-18T07:27:48;100915.31;;;25.91;41.06
27587;BME280;15019;49.002;8.420;2022-07-18T07:30:15;100918.66;;;26.08;38.95
27587;BME280;15019;49.002;8.420;2022-07-18T07:32:42;100925.53;;;26.09;39.01
27587;BME280;15019;49.002;8.420;2022-07-18T07:35:09;100921.38;;;26.38;38.48
27587;BME280;15019;49.002;8.420;2022-07-18T07:37:35;100929.72;;;26.75;39.20
27587;BME280;15019;49.002;8.420;2022-07-18T07:40:00;100929.09;;;27.15;36.78
27587;BME280;15019;49.002;8.420;2022-07-18T07:42:26;100928.75;;;27.36;35.49
27587;BME280;15019;49.002;8.420;2022-07-18T07:44:51;100928.56;;;28.10;36.69
27587;BME280;15019;49.002;8.420;2022-07-18T07:47:16;100936.75;;;28.86;33.49
27587;BME280;15019;49.002;8.420;2022-07-18T07:49:42;100933.13;;;29.01;32.80
27587;BME280;15019;49.002;8.420;2022-07-18T07:52:07;100936.47;;;29.16;34.65
27587;BME280;15019;49.002;8.420;2022-07-18T07:54:33;100924.78;;;29.46;32.27
27587;BME280;15019;49.002;8.420;2022-07-18T07:56:58;100924.94;;;28.93;32.86
27587;BME280;15019;49.002;8.420;2022-07-18T07:59:23;100930.81;;;29.85;31.97
27587;BME280;15019;49.002;8.420;2022-07-18T08:01:49;100939.81;;;30.30;31.89
27587;BME280;15019;49.002;8.420;2022-07-18T08:04:14;100927.72;;;30.88;31.10
27587;BME280;15019;49.002;8.420;2022-07-18T08:06:39;100927.88;;;31.66;30.36
27587;BME280;15019;49.002;8.420;2022-07-18T08:09:05;100924.88;;;31.82;30.15
27587;BME280;15019;49.002;8.420;2022-07-18T08:11:30;100921.06;;;31.86;28.06
27587;BME280;15019;49.002;8.420;2022-07-18T08:13:56;100922.31;;;32.03;29.16
27587;BME280;15019;49.002;8.420;2022-07-18T08:16:21;100914.66;;;31.68;28.89
27587;BME280;15019;49.002;8.420;2022-07-18T08:18:47;100911.81;;;32.25;28.35
27587;BME280;15019;49.002;8.420;2022-07-18T08:21:12;100914.03;;;32.41;27.91
27587;BME280;15019;49.002;8.420;2022-07-18T08:23:37;100919.72;;;32.46;28.62
27587;BME280;15019;49.002;8.420;2022-07-18T08:26:03;100915.56;;;31.89;28.39
27587;BME280;15019;49.002;8.420;2022-07-18T08:28:28;100922.34;;;31.58;29.06
27587;BME280;15019;49.002;8.420;2022-07-18T08:30:53;100922.97;;;32.38;27.54
27587;BME280;15019;49.002;8.420;2022-07-18T08:33:19;100909.09;;;32.79;27.15
27587;BME280;15019;49.002;8.420;2022-07-18T08:35:44;100918.91;;;32.77;27.37
27587;BME280;15019;49.002;8.420;2022-07-18T08:38:09;100917.03;;;32.89;28.71
27587;BME280;15019;49.002;8.420;2022-07-18T08:40:37;100916.25;;;32.02;27.99
27587;BME280;15019;49.002;8.420;2022-07-18T08:43:02;100912.75;;;32.13;27.54
27587;BME280;15019;49.002;8.420;2022-07-18T08:45:28;100906.28;;;32.71;26.55
27587;BME280;15019;49.002;8.420;2022-07-18T08:47:53;100907.97;;;32.61;27.29
27587;BME280;15019;49.002;8.420;2022-07-18T08:50:19;100908.25;;;32.99;26.70
27587;BME280;15019;49.002;8.420;2022-07-18T08:52:45;100915.09;;;33.12;26.88
27587;BME280;15019;49.002;8.420;2022-07-18T08:55:11;100907.69;;;32.64;27.52
27587;BME280;15019;49.002;8.420;2022-07-18T08:57:36;100908.53;;;33.48;26.40
27587;BME280;15019;49.002;8.420;2022-07-18T09:00:07;100905.94;;;33.57;26.49
27587;BME280;15019;49.002;8.420;2022-07-18T09:02:34;100900.13;;;34.13;26.58
27587;BME280;15019;49.002;8.420;2022-07-18T09:05:03;100896.00;;;34.78;27.48
27587;BME280;15019;49.002;8.420;2022-07-18T09:07:31;100893.94;;;34.53;26.64
27587;BME280;15019;49.002;8.420;2022-07-18T09:09:59;100894.63;;;34.74;24.99
27587;BME280;15019;49.002;8.420;2022-07-18T09:12:28;100900.44;;;34.68;24.80
27587;BME280;15019;49.002;8.420;2022-07-18T09:14:54;100887.72;;;34.54;25.76
27587;BME280;15019;49.002;8.420;2022-07-18T09:17:22;100893.03;;;33.94;25.21
27587;BME280;15019;49.002;8.420;2022-07-18T09:20:03;100907.63;;;34.08;25.77
27587;BME280;15019;49.002;8.420;2022-07-18T09:22:31;100899.28;;;34.12;24.91
27587;BME280;15019;49.002;8.420;2022-07-18T09:25:10;100896.81;;;34.11;26.04
27587;BME280;15019;49.002;8.420;2022-07-18T09:27:38;100894.91;;;33.73;25.87
27587;BME280;15019;49.002;8.420;2022-07-18T09:30:28;100892.63;;;33.89;25.84
27587;BME280;15019;49.002;8.420;2022-07-18T09:33:14;100886.03;;;33.74;25.95
27587;BME280;15019;49.002;8.420;2022-07-18T09:35:45;100878.69;;;34.46;24.98
27587;BME280;15019;49.002;8.420;2022-07-18T09:38:18;100883.41;;;35.18;24.60
27587;BME280;15019;49.002;8.420;2022-07-18T09:40:47;100890.78;;;35.52;24.76
27587;BME280;15019;49.002;8.420;2022-07-18T09:43:18;100879.84;;;35.10;24.36
27587;BME280;15019;49.002;8.420;2022-07-18T09:45:51;100889.09;;;34.38;24.80
27587;BME280;15019;49.002;8.420;2022-07-18T09:48:19;100877.44;;;34.50;25.82
27587;BME280;15019;49.002;8.420;2022-07-18T09:53:34;100874.31;;;35.40;23.15
27587;BME280;15019;49.002;8.420;2022-07-18T09:58:31;100866.94;;;35.99;23.50
27587;BME280;15019;49.002;8.420;2022-07-18T10:00:59;100869.94;;;35.21;24.05
27587;BME280;15019;49.002;8.420;2022-07-18T10:03:25;100872.53;;;35.68;23.17
27587;BME280;15019;49.002;8.420;2022-07-18T10:05:53;100860.91;;;36.24;23.74
27587;BME280;15019;49.002;8.420;2022-07-18T10:08:21;100859.19;;;35.70;22.93
27587;BME280;15019;49.002;8.420;2022-07-18T10:10:48;100857.88;;;36.37;22.46
27587;BME280;15019;49.002;8.420;2022-07-18T10:13:15;100864.31;;;36.78;22.08
27587;BME280;15019;49.002;8.420;2022-07-18T10:15:41;100865.03;;;36.88;24.25
27587;BME280;15019;49.002;8.420;2022-07-18T10:18:09;100856.66;;;37.18;21.52
27587;BME280;15019;49.002;8.420;2022-07-18T10:20:43;100862.81;;;37.35;21.03
27587;BME280;15019;49.002;8.420;2022-07-18T10:26:18;100864.41;;;37.62;21.34
27587;BME280;15019;49.002;8.420;2022-07-18T10:31:35;100859.06;;;37.46;21.18
27587;BME280;15019;49.002;8.420;2022-07-18T10:39:19;100848.94;;;37.99;21.38
27587;BME280;15019;49.002;8.420;2022-07-18T10:47:07;100844.16;;;37.45;19.79
27587;BME280;15019;49.002;8.420;2022-07-18T10:57:41;100827.88;;;37.23;23.08
27587;BME280;15019;49.002;8.420;2022-07-18T11:00:24;100829.38;;;37.76;20.25
27587;BME280;15019;49.002;8.420;2022-07-18T11:03:09;100822.59;;;37.23;19.96
27587;BME280;15019;49.002;8.420;2022-07-18T11:16:10;100815.78;;;37.63;22.39
27587;BME280;15019;49.002;8.420;2022-07-18T11:21:19;100812.88;;;37.82;19.76
27587;BME280;15019;49.002;8.420;2022-07-18T11:23:46;100812.50;;;37.69;19.41
27587;BME280;15019;49.002;8.420;2022-07-18T11:26:17;100811.56;;;38.11;19.36
27587;BME280;15019;49.002;8.420;2022-07-18T11:28:43;100805.56;;;36.92;19.64
27587;BME280;15019;49.002;8.420;2022-07-18T11:31:11;100803.00;;;37.50;22.52
27587;BME280;15019;49.002;8.420;2022-07-18T11:33:40;100801.09;;;37.85;19.77
27587;BME280;15019;49.002;8.420;2022-07-18T11:36:10;100803.56;;;37.78;19.69
27587;BME280;15019;49.002;8.420;2022-07-18T11:38:38;100806.81;;;37.06;20.60
27587;BME280;15019;49.002;8.420;2022-07-18T11:41:04;100796.19;;;36.97;20.58
27587;BME280;15019;49.002;8.420;2022-07-18T11:43:29;100794.91;;;37.10;20.44
27587;BME280;15019;49.002;8.420;2022-07-18T11:46:16;100788.72;;;36.67;21.29
27587;BME280;15019;49.002;8.420;2022-07-18T11:48:43;100785.47;;;36.47;20.31
27587;BME280;15019;49.002;8.420;2022-07-18T11:51:10;100787.44;;;36.02;20.64
27587;BME280;15019;49.002;8.420;2022-07-18T11:53:35;100795.22;;;35.58;22.24
27587;BME280;15019;49.002;8.420;2022-07-18T11:56:05;100781.84;;;35.87;20.70
27587;BME280;15019;49.002;8.420;2022-07-18T11:58:38;100783.94;;;35.83;21.79
27587;BME280;15019;49.002;8.420;2022-07-18T12:01:04;100783.59;;;35.78;21.60
27587;BME280;15019;49.002;8.420;2022-07-18T12:03:30;100771.44;;;35.85;22.57
27587;BME280;15019;49.002;8.420;2022-07-18T12:05:56;100770.84;;;35.91;21.64
27587;BME280;15019;49.002;8.420;2022-07-18T12:11:18;100775.25;;;36.26;21.00
27587;BME280;15019;49.002;8.420;2022-07-18T12:14:34;100765.06;;;36.14;21.19
27587;BME280;15019;49.002;8.420;2022-07-18T12:16:55;100767.44;;;35.99;20.74
27587;BME280;15019;49.002;8.420;2022-07-18T12:19:22;100764.50;;;35.84;22.14
27587;BME280;15019;49.002;8.420;2022-07-18T12:24:36;100754.06;;;35.20;21.03
27587;BME280;15019;49.002;8.420;2022-07-18T12:29:59;100750.34;;;35.13;21.88
27587;BME280;15019;49.002;8.420;2022-07-18T12:32:25;100748.59;;;35.31;21.77
27587;BME280;15019;49.002;8.420;2022-07-18T12:35:05;100747.00;;;34.93;23.14
27587;BME280;15019;49.002;8.420;2022-07-18T12:37:31;100740.75;;;34.47;22.91
27587;BME280;15019;49.002;8.420;2022-07-18T12:40:10;100742.88;;;34.81;21.63
27587;BME280;15019;49.002;8.420;2022-07-18T12:42:41;100743.63;;;35.01;22.76
27587;BME280;15019;49.002;8.420;2022-07-18T12:45:08;100744.16;;;34.67;20.96
27587;BME280;15019;49.002;8.420;2022-07-18T12:47:34;100735.25;;;34.41;21.72
27587;BME280;15019;49.002;8.420;2022-07-18T12:50:00;100736.09;;;34.22;21.47
27587;BME280;15019;49.002;8.420;2022-07-18T12:52:25;100739.94;;;34.37;22.28
27587;BME280;15019;49.002;8.420;2022-07-18T12:54:51;100738.22;;;33.90;21.94
27587;BME280;15019;49.002;8.420;2022-07-18T12:57:18;100731.63;;;34.23;21.76
27587;BME280;15019;49.002;8.420;2022-07-18T12:59:43;100725.16;;;33.98;22.66
27587;BME280;15019;49.002;8.420;2022-07-18T13:02:10;100731.66;;;34.13;21.57
27587;BME280;15019;49.002;8.420;2022-07-18T13:04:35;100728.63;;;34.27;21.71
27587;BME280;15019;49.002;8.420;2022-07-18T13:07:01;100735.81;;;34.06;22.85
27587;BME280;15019;49.002;8.420;2022-07-18T13:09:26;100728.91;;;33.86;22.08
27587;BME280;15019;49.002;8.420;2022-07-18T13:11:52;100724.16;;;34.18;22.79
27587;BME280;15019;49.002;8.420;2022-07-18T13:14:17;100714.91;;;34.04;22.52
27587;BME280;15019;49.002;8.420;2022-07-18T13:16:44;100723.63;;;34.14;21.62
27587;BME280;15019;49.002;8.420;2022-07-18T13:19:09;100722.25;;;34.10;21.77
27587;BME280;15019;49.002;8.420;2022-07-18T13:21:35;100715.31;;;34.19;22.26
27587;BME280;15019;49.002;8.420;2022-07-18T13:24:00;100715.56;;;34.35;22.47
27587;BME280;15019;49.002;8.420;2022-07-18T13:26:25;100718.91;;;34.18;21.77
27587;BME280;15019;49.002;8.420;2022-07-18T13:28:51;100707.28;;;33.92;21.84
27587;BME280;15019;49.002;8.420;2022-07-18T13:31:16;100715.06;;;33.84;22.34
27587;BME280;15019;49.002;8.420;2022-07-18T13:33:41;100720.31;;;33.84;22.31
27587;BME280;15019;49.002;8.420;2022-07-18T13:36:07;100705.63;;;33.91;22.93
27587;BME280;15019;49.002;8.420;2022-07-18T13:38:32;100706.06;;;33.76;22.94